sensor_id;sensor_type;location;lat;lon;timestamp;pressure;altitude;pressure_sealevel;temperature;humidity
10097;BME280;5087;42.662;23.466;2023-08-01T00:01:41;95085.00;;;15.68;100.00
10097;BME280;5087;42.662;23.466;2023-08-01T00:04:08;95089.47;;;15.76;100.00
10097;BME280;5087;42.662;23.466;2023-08-01T00:06:38;95087.31;;;15.66;100.00
10097;BME280;5087;42.662;23.466;2023-08-01T00:09:05;95085.31;;;15.31;100.00
10097;BME280;5087;42.662;23.466;2023-08-01T00:11:32;95094.50;;;15.23;100.00
10097;BME280;5087;42.662;23.466;2023-08-01T00:14:00;95100.44;;;15.09;100.00
10097;BME280;5087;42.662;23.466;2023-08-01T00:16:28;95091.69;;;15.03;100.00
10097;BME280;5087;42.662;23.466;2023-08-01T00:18:56;95090.19;;;14.90;100.00
10097;BME280;5087;42.662;23.466;2023-08-01T00:21:23;95065.84;;;14.56;100.00
10097;BME280;5087;42.662;23.466;2023-08-01T00:23:51;95093.38;;;14.63;100.00
10097;BME280;5087;42.662;23.466;2023-08-01T00:26:18;95096.13;;;14.63;100.00
10097;BME280;5087;42.662;23.466;2023-08-01T00:28:45;95091.69;;;14.59;100.00
10097;BME280;5087;42.662;23.466;2023-08-01T00:31:13;95074.28;;;14.35;100.00
10097;BME280;5087;42.662;23.466;2023-08-01T00:33:44;95087.00;;;14.43;100.00
10097;BME280;5087;42.662;23.466;2023-08-01T00:36:11;95081.09;;;14.41;100.00
10097;BME280;5087;42.662;23.466;2023-08-01T00:38:39;95089.28;;;14.41;100.00
10097;BME280;5087;42.662;23.466;2023-08-01T00:41:09;95090.16;;;14.45;100.00
10097;BME280;5087;42.662;23.466;2023-08-01T00:43:36;95075.63;;;14.41;100.00
10097;BME280;5087;42.662;23.466;2023-08-01T00:46:07;95071.66;;;14.38;100.00
10097;BME280;5087;42.662;23.466;2023-08-01T00:48:35;95086.84;;;14.52;100.00
10097;BME280;5087;42.662;23.466;2023-08-01T00:51:05;95077.78;;;14.64;100.00
10097;BME280;5087;42.662;23.466;2023-08-01T00:53:34;95075.63;;;14.57;100.00
10097;BME280;5087;42.662;23.466;2023-08-01T00:56:02;95077.00;;;14.63;100.00
10097;BME280;5087;42.662;23.466;2023-08-01T00:58:30;95074.13;;;14.72;100.00
10097;BME280;5087;42.662;23.466;2023-08-01T01:00:57;95074.47;;;14.70;100.00
10097;BME280;5087;42.662;23.466;2023-08-01T01:03:25;95075.03;;;14.64;100.00
10097;BME280;5087;42.662;23.466;2023-08-01T01:05:56;95072.03;;;14.81;100.00
10097;BME280;5087;42.662;23.466;2023-08-01T01:08:26;95056.22;;;14.91;100.00
10097;BME280;5087;42.662;23.466;2023-08-01T01:10:53;95051.94;;;14.90;100.00
10097;BME280;5087;42.662;23.466;2023-08-01T01:13:20;95062.50;;;15.07;100.00
10097;BME280;5087;42.662;23.466;2023-08-01T01:15:48;95050.16;;;14.97;100.00
10097;BME280;5087;42.662;23.466;2023-08-01T01:18:25;95051.63;;;15.11;100.00
10097;BME280;5087;42.662;23.466;2023-08-01T01:20:54;95055.25;;;15.31;100.00
10097;BME280;5087;42.662;23.466;2023-08-01T01:23:22;95065.41;;;15.30;100.00
10097;BME280;5087;42.662;23.466;2023-08-01T01:25:51;95052.41;;;15.43;100.00
10097;BME280;5087;42.662;23.466;2023-08-01T01:28:19;95056.63;;;15.57;100.00
10097;BME280;5087;42.662;23.466;2023-08-01T01:30:48;95052.56;;;15.50;100.00
10097;BME280;5087;42.662;23.466;2023-08-01T01:33:16;95048.59;;;15.48;100.00
10097;BME280;5087;42.662;23.466;2023-08-01T01:35:44;95053.47;;;15.23;100.00
10097;BME280;5087;42.662;23.466;2023-08-01T01:38:13;95046.97;;;15.11;100.00
10097;BME280;5087;42.662;23.466;2023-08-01T01:40:40;95047.69;;;15.08;100.00
10097;BME280;5087;42.662;23.466;2023-08-01T01:43:07;95056.41;;;14.82;100.00
10097;BME280;5087;42.662;23.466;2023-08-01T01:45:35;95061.00;;;14.49;100.00
10097;BME280;5087;42.662;23.466;2023-08-01T01:48:03;95057.81;;;14.03;100.00
10097;BME280;5087;42.662;23.466;2023-08-01T01:50:30;95056.56;;;14.00;100.00
10097;BME280;5087;42.662;23.466;2023-08-01T01:52:57;95054.88;;;13.96;100.00
10097;BME280;5087;42.662;23.466;2023-08-01T01:55:26;95056.47;;;13.97;100.00
10097;BME280;5087;42.662;23.466;2023-08-01T01:57:53;95065.78;;;13.96;100.00
10097;BME280;5087;42.662;23.466;2023-08-01T02:00:20;95062.81;;;14.01;100.00
10097;BME280;5087;42.662;23.466;2023-08-01T02:02:48;95068.47;;;14.08;100.00
10097;BME280;5087;42.662;23.466;2023-08-01T02:05:15;95067.78;;;14.11;100.00
10097;BME280;5087;42.662;23.466;2023-08-01T02:07:42;95050.06;;;14.05;100.00
10097;BME280;5087;42.662;23.466;2023-08-01T02:10:09;95059.34;;;14.16;100.00
10097;BME280;5087;42.662;23.466;2023-08-01T02:12:38;95058.97;;;14.18;100.00
10097;BME280;5087;42.662;23.466;2023-08-01T02:15:06;95056.81;;;14.23;100.00
10097;BME280;5087;42.662;23.466;2023-08-01T02:17:33;95061.56;;;14.27;100.00
10097;BME280;5087;42.662;23.466;2023-08-01T02:20:01;95065.44;;;14.25;100.00
10097;BME280;5087;42.662;23.466;2023-08-01T02:22:28;95071.69;;;14.26;100.00
10097;BME280;5087;42.662;23.466;2023-08-01T02:24:55;95060.84;;;14.14;100.00
10097;BME280;5087;42.662;23.466;2023-08-01T02:27:23;95065.72;;;14.20;100.00
10097;BME280;5087;42.662;23.466;2023-08-01T02:29:51;95049.91;;;14.14;100.00
10097;BME280;5087;42.662;23.466;2023-08-01T02:32:18;95062.97;;;14.20;100.00
10097;BME280;5087;42.662;23.466;2023-08-01T02:34:46;95051.84;;;14.13;100.00
10097;BME280;5087;42.662;23.466;2023-08-01T02:37:13;95053.53;;;14.18;100.00
10097;BME280;5087;42.662;23.466;2023-08-01T02:39:40;95062.63;;;14.22;100.00
10097;BME280;5087;42.662;23.466;2023-08-01T02:42:07;95054.78;;;14.20;100.00
10097;BME280;5087;42.662;23.466;2023-08-01T02:44:35;95061.31;;;14.32;100.00
10097;BME280;5087;42.662;23.466;2023-08-01T02:47:04;95049.06;;;14.25;100.00
10097;BME280;5087;42.662;23.466;2023-08-01T02:49:31;95059.13;;;14.37;100.00
10097;BME280;5087;42.662;23.466;2023-08-01T02:51:58;95063.03;;;14.52;100.00
10097;BME280;5087;42.662;23.466;2023-08-01T02:54:26;95052.06;;;14.65;100.00
10097;BME280;5087;42.662;23.466;2023-08-01T02:56:53;95043.22;;;14.55;100.00
10097;BME280;5087;42.662;23.466;2023-08-01T02:59:20;95049.72;;;14.79;100.00
10097;BME280;5087;42.662;23.466;2023-08-01T03:01:47;95049.13;;;14.57;100.00
10097;BME280;5087;42.662;23.466;2023-08-01T03:04:16;95050.09;;;14.49;100.00
10097;BME280;5087;42.662;23.466;2023-08-01T03:06:43;95062.84;;;14.45;100.00
10097;BME280;5087;42.662;23.466;2023-08-01T03:09:11;95051.34;;;14.23;100.00
10097;BME280;5087;42.662;23.466;2023-08-01T03:11:41;95065.94;;;13.87;100.00
10097;BME280;5087;42.662;23.466;2023-08-01T03:14:08;95062.53;;;13.65;100.00
10097;BME280;5087;42.662;23.466;2023-08-01T03:16:36;95059.72;;;13.74;100.00
10097;BME280;5087;42.662;23.466;2023-08-01T03:19:03;95061.78;;;13.65;100.00
10097;BME280;5087;42.662;23.466;2023-08-01T03:21:33;95056.53;;;13.72;100.00
10097;BME280;5087;42.662;23.466;2023-08-01T03:24:02;95040.53;;;13.58;100.00
10097;BME280;5087;42.662;23.466;2023-08-01T03:26:29;95057.69;;;13.58;100.00
10097;BME280;5087;42.662;23.466;2023-08-01T03:28:57;95047.25;;;13.48;100.00
10097;BME280;5087;42.662;23.466;2023-08-01T03:31:24;95075.63;;;13.72;100.00
10097;BME280;5087;42.662;23.466;2023-08-01T03:33:53;95069.59;;;13.79;100.00
10097;BME280;5087;42.662;23.466;2023-08-01T03:36:20;95064.56;;;13.81;100.00
10097;BME280;5087;42.662;23.466;2023-08-01T03:38:49;95070.94;;;13.85;100.00
10097;BME280;5087;42.662;23.466;2023-08-01T03:41:16;95084.38;;;13.77;100.00
10097;BME280;5087;42.662;23.466;2023-08-01T03:43:43;95076.28;;;13.81;100.00
10097;BME280;5087;42.662;23.466;2023-08-01T03:46:10;95068.56;;;13.71;100.00
10097;BME280;5087;42.662;23.466;2023-08-01T03:48:37;95083.09;;;13.87;100.00
10097;BME280;5087;42.662;23.466;2023-08-01T03:51:05;95084.84;;;14.08;100.00
10097;BME280;5087;42.662;23.466;2023-08-01T03:53:32;95082.84;;;13.92;100.00
10097;BME280;5087;42.662;23.466;2023-08-01T03:56:01;95085.56;;;14.05;100.00
10097;BME280;5087;42.662;23.466;2023-08-01T03:58:28;95088.50;;;14.00;100.00
10097;BME280;5087;42.662;23.466;2023-08-01T04:00:55;95093.06;;;13.96;100.00
10097;BME280;5087;42.662;23.466;2023-08-01T04:03:22;95084.63;;;14.01;100.00
10097;BME280;5087;42.662;23.466;2023-08-01T04:05:50;95085.88;;;14.03;100.00
10097;BME280;5087;42.662;23.466;2023-08-01T04:08:17;95060.44;;;13.99;100.00
10097;BME280;5087;42.662;23.466;2023-08-01T04:10:44;95080.69;;;14.27;100.00
10097;BME280;5087;42.662;23.466;2023-08-01T04:13:13;95096.25;;;14.26;100.00
10097;BME280;5087;42.662;23.466;2023-08-01T04:15:40;95091.22;;;14.40;100.00
10097;BME280;5087;42.662;23.466;2023-08-01T04:18:07;95093.50;;;14.67;100.00
10097;BME280;5087;42.662;23.466;2023-08-01T04:20:34;95084.53;;;14.82;100.00
10097;BME280;5087;42.662;23.466;2023-08-01T04:23:02;95090.91;;;15.18;100.00
10097;BME280;5087;42.662;23.466;2023-08-01T04:25:30;95089.47;;;15.25;100.00
10097;BME280;5087;42.662;23.466;2023-08-01T04:31:44;95068.09;;;15.82;100.00
10097;BME280;5087;42.662;23.466;2023-08-01T04:34:12;95069.69;;;16.19;100.00
10097;BME280;5087;42.662;23.466;2023-08-01T04:36:44;95084.53;;;16.18;100.00
10097;BME280;5087;42.662;23.466;2023-08-01T04:39:11;95069.09;;;15.90;100.00
10097;BME280;5087;42.662;23.466;2023-08-01T04:41:40;95073.69;;;16.64;100.00
10097;BME280;5087;42.662;23.466;2023-08-01T04:44:07;95042.00;;;16.90;100.00
10097;BME280;5087;42.662;23.466;2023-08-01T04:46:38;95071.78;;;17.34;100.00
10097;BME280;5087;42.662;23.466;2023-08-01T04:49:08;95082.50;;;17.70;100.00
10097;BME280;5087;42.662;23.466;2023-08-01T04:51:36;95060.59;;;17.74;100.00
10097;BME280;5087;42.662;23.466;2023-08-01T04:54:03;95078.91;;;18.23;100.00
10097;BME280;5087;42.662;23.466;2023-08-01T04:56:31;95087.03;;;18.12;100.00
10097;BME280;5087;42.662;23.466;2023-08-01T04:58:58;95069.59;;;18.01;100.00
10097;BME280;5087;42.662;23.466;2023-08-01T05:01:27;95062.00;;;18.21;100.00
10097;BME280;5087;42.662;23.466;2023-08-01T05:03:54;95060.22;;;18.36;100.00
10097;BME280;5087;42.662;23.466;2023-08-01T05:06:23;95068.09;;;18.03;100.00
10097;BME280;5087;42.662;23.466;2023-08-01T05:08:54;95069.03;;;18.18;100.00
10097;BME280;5087;42.662;23.466;2023-08-01T05:11:24;95077.66;;;18.17;100.00
10097;BME280;5087;42.662;23.466;2023-08-01T05:13:52;95075.00;;;18.24;100.00
10097;BME280;5087;42.662;23.466;2023-08-01T05:16:21;95060.41;;;18.20;100.00
10097;BME280;5087;42.662;23.466;2023-08-01T05:18:48;95044.75;;;18.21;100.00
10097;BME280;5087;42.662;23.466;2023-08-01T05:21:16;95046.91;;;18.76;100.00
10097;BME280;5087;42.662;23.466;2023-08-01T05:23:45;95065.50;;;19.31;100.00
10097;BME280;5087;42.662;23.466;2023-08-01T05:26:14;95052.81;;;19.16;100.00
10097;BME280;5087;42.662;23.466;2023-08-01T05:28:42;95049.09;;;18.97;100.00
10097;BME280;5087;42.662;23.466;2023-08-01T05:31:09;95069.63;;;19.07;100.00
10097;BME280;5087;42.662;23.466;2023-08-01T05:33:37;95068.16;;;19.72;100.00
10097;BME280;5087;42.662;23.466;2023-08-01T05:36:07;95064.03;;;20.04;100.00
10097;BME280;5087;42.662;23.466;2023-08-01T05:38:34;95058.81;;;19.84;100.00
10097;BME280;5087;42.662;23.466;2023-08-01T05:41:03;95058.88;;;19.95;100.00
10097;BME280;5087;42.662;23.466;2023-08-01T05:43:31;95060.25;;;20.37;100.00
10097;BME280;5087;42.662;23.466;2023-08-01T05:45:58;95069.19;;;20.13;100.00
10097;BME280;5087;42.662;23.466;2023-08-01T05:48:25;95069.75;;;18.80;100.00
10097;BME280;5087;42.662;23.466;2023-08-01T05:50:52;95076.81;;;18.81;100.00
10097;BME280;5087;42.662;23.466;2023-08-01T05:53:25;95052.38;;;18.72;100.00
10097;BME280;5087;42.662;23.466;2023-08-01T05:55:55;95054.22;;;18.98;100.00
10097;BME280;5087;42.662;23.466;2023-08-01T05:58:24;95047.03;;;19.32;100.00
10097;BME280;5087;42.662;23.466;2023-08-01T06:00:52;95070.91;;;19.20;100.00
10097;BME280;5087;42.662;23.466;2023-08-01T06:03:22;95060.50;;;18.95;100.00
10097;BME280;5087;42.662;23.466;2023-08-01T06:05:57;95063.28;;;19.51;100.00
10097;BME280;5087;42.662;23.466;2023-08-01T06:08:25;95075.41;;;19.99;100.00
10097;BME280;5087;42.662;23.466;2023-08-01T06:10:52;95065.38;;;20.35;100.00
10097;BME280;5087;42.662;23.466;2023-08-01T06:13:30;95062.03;;;21.11;100.00
10097;BME280;5087;42.662;23.466;2023-08-01T06:15:57;95065.94;;;20.84;100.00
10097;BME280;5087;42.662;23.466;2023-08-01T06:18:24;95064.25;;;20.54;100.00
10097;BME280;5087;42.662;23.466;2023-08-01T06:20:52;95059.06;;;20.38;100.00
10097;BME280;5087;42.662;23.466;2023-08-01T06:23:19;95029.28;;;19.85;100.00
10097;BME280;5087;42.662;23.466;2023-08-01T06:25:47;95060.41;;;19.85;100.00
10097;BME280;5087;42.662;23.466;2023-08-01T06:28:18;95054.38;;;20.50;100.00
10097;BME280;5087;42.662;23.466;2023-08-01T06:47:26;95030.84;;;23.38;100.00
10097;BME280;5087;42.662;23.466;2023-08-01T06:49:54;95025.34;;;21.54;100.00
10097;BME280;5087;42.662;23.466;2023-08-01T06:52:22;95044.28;;;21.37;100.00
10097;BME280;5087;42.662;23.466;2023-08-01T06:54:49;95027.31;;;21.78;100.00
10097;BME280;5087;42.662;23.466;2023-08-01T06:57:16;95024.88;;;22.84;100.00
10097;BME280;5087;42.662;23.466;2023-08-01T06:59:43;95032.03;;;23.37;100.00
10097;BME280;5087;42.662;23.466;2023-08-01T07:02:14;95028.72;;;23.95;100.00
10097;BME280;5087;42.662;23.466;2023-08-01T07:04:46;95030.13;;;24.45;100.00
10097;BME280;5087;42.662;23.466;2023-08-01T07:07:13;95017.91;;;24.74;100.00
10097;BME280;5087;42.662;23.466;2023-08-01T07:09:40;95029.00;;;23.66;100.00
10097;BME280;5087;42.662;23.466;2023-08-01T07:12:08;95008.59;;;22.19;100.00
10097;BME280;5087;42.662;23.466;2023-08-01T07:14:35;95027.34;;;21.64;100.00
10097;BME280;5087;42.662;23.466;2023-08-01T07:17:03;95019.41;;;21.51;100.00
10097;BME280;5087;42.662;23.466;2023-08-01T07:19:30;95018.53;;;22.05;100.00
10097;BME280;5087;42.662;23.466;2023-08-01T07:21:59;95013.63;;;22.49;100.00
10097;BME280;5087;42.662;23.466;2023-08-01T07:24:27;95016.47;;;23.51;100.00
10097;BME280;5087;42.662;23.466;2023-08-01T07:26:54;94995.16;;;23.86;100.00
10097;BME280;5087;42.662;23.466;2023-08-01T07:29:21;95010.25;;;22.87;100.00
10097;BME280;5087;42.662;23.466;2023-08-01T07:31:50;94987.97;;;22.49;100.00
10097;BME280;5087;42.662;23.466;2023-08-01T07:34:17;95009.53;;;23.32;100.00
10097;BME280;5087;42.662;23.466;2023-08-01T07:36:47;94997.91;;;23.90;100.00
10097;BME280;5087;42.662;23.466;2023-08-01T07:39:17;95005.56;;;24.13;100.00
10097;BME280;5087;42.662;23.466;2023-08-01T07:41:47;94997.03;;;24.31;100.00
10097;BME280;5087;42.662;23.466;2023-08-01T07:44:25;94996.69;;;24.56;100.00
10097;BME280;5087;42.662;23.466;2023-08-01T07:46:53;94995.03;;;24.93;100.00
10097;BME280;5087;42.662;23.466;2023-08-01T07:49:23;94966.84;;;24.68;100.00
10097;BME280;5087;42.662;23.466;2023-08-01T07:51:51;94975.00;;;24.78;96.96
10097;BME280;5087;42.662;23.466;2023-08-01T07:54:23;94988.31;;;26.06;89.42
10097;BME280;5087;42.662;23.466;2023-08-01T07:56:51;94970.84;;;26.46;83.50
10097;BME280;5087;42.662;23.466;2023-08-01T07:59:18;94990.03;;;26.40;88.15
10097;BME280;5087;42.662;23.466;2023-08-01T08:01:45;94968.66;;;25.53;100.00
10097;BME280;5087;42.662;23.466;2023-08-01T08:04:12;94976.09;;;26.23;91.03
10097;BME280;5087;42.662;23.466;2023-08-01T08:06:40;94992.25;;;25.65;98.94
10097;BME280;5087;42.662;23.466;2023-08-01T08:09:07;94960.66;;;25.99;87.82
10097;BME280;5087;42.662;23.466;2023-08-01T08:11:36;94956.47;;;26.11;85.25
10097;BME280;5087;42.662;23.466;2023-08-01T08:14:03;94984.59;;;26.53;90.45
10097;BME280;5087;42.662;23.466;2023-08-01T08:16:30;94969.59;;;26.67;84.42
10097;BME280;5087;42.662;23.466;2023-08-01T08:18:58;94968.31;;;25.51;88.60
10097;BME280;5087;42.662;23.466;2023-08-01T08:21:25;94983.00;;;23.73;100.00
10097;BME280;5087;42.662;23.466;2023-08-01T08:23:56;94968.50;;;23.99;100.00
10097;BME280;5087;42.662;23.466;2023-08-01T08:26:24;94974.16;;;24.54;100.00
10097;BME280;5087;42.662;23.466;2023-08-01T08:28:55;94964.94;;;24.30;100.00
10097;BME280;5087;42.662;23.466;2023-08-01T08:31:23;94948.78;;;24.25;100.00
10097;BME280;5087;42.662;23.466;2023-08-01T08:33:51;94952.78;;;24.51;100.00
10097;BME280;5087;42.662;23.466;2023-08-01T08:36:20;94960.94;;;25.40;100.00
10097;BME280;5087;42.662;23.466;2023-08-01T08:38:48;94911.31;;;25.63;92.53
10097;BME280;5087;42.662;23.466;2023-08-01T08:41:20;94949.97;;;26.91;91.24
10097;BME280;5087;42.662;23.466;2023-08-01T08:43:56;94950.22;;;26.03;92.42
10097;BME280;5087;42.662;23.466;2023-08-01T08:46:28;94948.72;;;25.98;90.90
10097;BME280;5087;42.662;23.466;2023-08-01T08:48:56;94925.81;;;25.50;92.00
10097;BME280;5087;42.662;23.466;2023-08-01T08:51:26;94937.56;;;26.75;95.08
10097;BME280;5087;42.662;23.466;2023-08-01T08:53:58;94934.25;;;25.67;92.90
10097;BME280;5087;42.662;23.466;2023-08-01T08:56:28;94941.13;;;26.02;89.71
10097;BME280;5087;42.662;23.466;2023-08-01T08:58:57;94922.56;;;25.32;97.05
10097;BME280;5087;42.662;23.466;2023-08-01T09:01:27;94934.34;;;25.83;91.04
10097;BME280;5087;42.662;23.466;2023-08-01T09:04:00;94938.44;;;26.72;85.94
10097;BME280;5087;42.662;23.466;2023-08-01T09:06:30;94924.00;;;26.04;89.28
10097;BME280;5087;42.662;23.466;2023-08-01T09:09:02;94937.47;;;26.26;92.54
10097;BME280;5087;42.662;23.466;2023-08-01T09:11:39;94911.41;;;27.68;80.75
10097;BME280;5087;42.662;23.466;2023-08-01T09:14:09;94916.59;;;28.25;74.83
10097;BME280;5087;42.662;23.466;2023-08-01T09:16:37;94898.22;;;26.57;82.22
10097;BME280;5087;42.662;23.466;2023-08-01T09:19:05;94921.88;;;25.71;89.92
10097;BME280;5087;42.662;23.466;2023-08-01T09:21:33;94921.88;;;25.71;90.01
10097;BME280;5087;42.662;23.466;2023-08-01T09:24:08;94923.56;;;26.26;83.79
10097;BME280;5087;42.662;23.466;2023-08-01T09:26:37;94903.31;;;27.87;74.46
10097;BME280;5087;42.662;23.466;2023-08-01T09:29:12;94909.06;;;27.04;80.00
10097;BME280;5087;42.662;23.466;2023-08-01T09:31:43;94895.66;;;27.15;72.84
10097;BME280;5087;42.662;23.466;2023-08-01T09:34:19;94890.09;;;26.99;74.85
10097;BME280;5087;42.662;23.466;2023-08-01T09:36:47;94888.16;;;26.79;75.92
10097;BME280;5087;42.662;23.466;2023-08-01T09:39:16;94901.81;;;27.07;77.01
10097;BME280;5087;42.662;23.466;2023-08-01T09:41:44;94902.34;;;27.64;72.85
10097;BME280;5087;42.662;23.466;2023-08-01T09:44:15;94869.84;;;27.87;70.38
10097;BME280;5087;42.662;23.466;2023-08-01T09:46:43;94901.91;;;27.03;72.55
10097;BME280;5087;42.662;23.466;2023-08-01T09:49:12;94878.94;;;27.15;75.91
10097;BME280;5087;42.662;23.466;2023-08-01T09:51:47;94890.47;;;27.30;78.34
10097;BME280;5087;42.662;23.466;2023-08-01T09:54:15;94889.88;;;26.57;79.38
10097;BME280;5087;42.662;23.466;2023-08-01T09:56:44;94882.28;;;26.04;82.62
10097;BME280;5087;42.662;23.466;2023-08-01T09:59:13;94884.66;;;25.85;85.29
10097;BME280;5087;42.662;23.466;2023-08-01T10:01:44;94846.53;;;27.22;82.03
10097;BME280;5087;42.662;23.466;2023-08-01T10:04:18;94861.94;;;27.43;77.61
10097;BME280;5087;42.662;23.466;2023-08-01T10:06:54;94825.31;;;27.11;75.59
10097;BME280;5087;42.662;23.466;2023-08-01T10:09:25;94858.94;;;26.88;78.25
10097;BME280;5087;42.662;23.466;2023-08-01T10:11:54;94843.34;;;27.53;77.34
10097;BME280;5087;42.662;23.466;2023-08-01T10:14:23;94848.38;;;27.12;74.13
10097;BME280;5087;42.662;23.466;2023-08-01T10:16:51;94832.22;;;27.66;72.88
10097;BME280;5087;42.662;23.466;2023-08-01T10:19:25;94854.25;;;27.01;76.07
10097;BME280;5087;42.662;23.466;2023-08-01T10:21:53;94839.38;;;27.79;73.75
10097;BME280;5087;42.662;23.466;2023-08-01T10:24:23;94847.66;;;27.24;75.05
10097;BME280;5087;42.662;23.466;2023-08-01T10:26:54;94835.88;;;28.18;75.18
10097;BME280;5087;42.662;23.466;2023-08-01T10:29:39;94840.41;;;27.27;73.86
10097;BME280;5087;42.662;23.466;2023-08-01T10:32:07;94835.88;;;27.33;79.10
10097;BME280;5087;42.662;23.466;2023-08-01T10:34:35;94817.88;;;27.21;75.39
10097;BME280;5087;42.662;23.466;2023-08-01T10:37:02;94831.66;;;27.41;77.01
10097;BME280;5087;42.662;23.466;2023-08-01T10:39:29;94815.03;;;27.67;75.52
10097;BME280;5087;42.662;23.466;2023-08-01T10:41:57;94821.72;;;27.27;75.27
10097;BME280;5087;42.662;23.466;2023-08-01T10:44:26;94823.34;;;26.95;72.59
10097;BME280;5087;42.662;23.466;2023-08-01T10:46:55;94805.06;;;27.53;74.78
10097;BME280;5087;42.662;23.466;2023-08-01T10:49:34;94814.31;;;28.05;69.38
10097;BME280;5087;42.662;23.466;2023-08-01T10:52:15;94814.22;;;26.45;75.62
10097;BME280;5087;42.662;23.466;2023-08-01T10:54:43;94805.53;;;26.76;73.71
10097;BME280;5087;42.662;23.466;2023-08-01T10:57:17;94800.09;;;27.61;74.17
10097;BME280;5087;42.662;23.466;2023-08-01T10:59:45;94781.91;;;27.56;70.98
10097;BME280;5087;42.662;23.466;2023-08-01T11:02:19;94787.56;;;28.21;70.88
10097;BME280;5087;42.662;23.466;2023-08-01T11:04:55;94791.53;;;27.94;69.50
10097;BME280;5087;42.662;23.466;2023-08-01T11:07:22;94777.50;;;28.97;66.08
10097;BME280;5087;42.662;23.466;2023-08-01T11:09:49;94782.84;;;29.93;60.01
10097;BME280;5087;42.662;23.466;2023-08-01T11:12:17;94762.41;;;30.06;59.12
10097;BME280;5087;42.662;23.466;2023-08-01T11:14:44;94769.63;;;30.25;59.24
10097;BME280;5087;42.662;23.466;2023-08-01T11:17:12;94757.03;;;27.75;63.28
10097;BME280;5087;42.662;23.466;2023-08-01T11:19:41;94769.16;;;28.10;63.72
10097;BME280;5087;42.662;23.466;2023-08-01T11:22:09;94768.28;;;27.45;62.56
10097;BME280;5087;42.662;23.466;2023-08-01T11:24:37;94766.91;;;28.31;67.76
10097;BME280;5087;42.662;23.466;2023-08-01T11:27:06;94731.03;;;29.89;62.96
10097;BME280;5087;42.662;23.466;2023-08-01T11:29:38;94750.06;;;28.83;61.93
10097;BME280;5087;42.662;23.466;2023-08-01T11:32:06;94734.06;;;27.58;64.83
10097;BME280;5087;42.662;23.466;2023-08-01T11:34:41;94732.88;;;27.85;63.91
10097;BME280;5087;42.662;23.466;2023-08-01T11:37:10;94754.72;;;28.38;65.58
10097;BME280;5087;42.662;23.466;2023-08-01T11:39:41;94747.50;;;28.15;64.42
10097;BME280;5087;42.662;23.466;2023-08-01T11:42:14;94728.41;;;28.13;63.08
10097;BME280;5087;42.662;23.466;2023-08-01T11:44:41;94750.72;;;27.87;62.27
10097;BME280;5087;42.662;23.466;2023-08-01T11:47:11;94709.44;;;28.21;63.94
10097;BME280;5087;42.662;23.466;2023-08-01T11:49:44;94741.13;;;28.27;61.47
10097;BME280;5087;42.662;23.466;2023-08-01T11:52:22;94741.69;;;28.83;61.89
10097;BME280;5087;42.662;23.466;2023-08-01T11:54:50;94724.84;;;28.73;59.36
10097;BME280;5087;42.662;23.466;2023-08-01T11:57:17;94730.63;;;28.31;59.60
10097;BME280;5087;42.662;23.466;2023-08-01T11:59:48;94716.69;;;28.18;62.45
10097;BME280;5087;42.662;23.466;2023-08-01T12:02:23;94723.56;;;28.39;60.48
10097;BME280;5087;42.662;23.466;2023-08-01T12:04:52;94695.94;;;28.54;60.79
10097;BME280;5087;42.662;23.466;2023-08-01T12:07:25;94689.41;;;28.35;57.38
10097;BME280;5087;42.662;23.466;2023-08-01T12:09:55;94713.41;;;28.81;58.41
10097;BME280;5087;42.662;23.466;2023-08-01T12:12:23;94696.06;;;29.84;56.14
10097;BME280;5087;42.662;23.466;2023-08-01T12:14:59;94691.63;;;31.02;53.08
10097;BME280;5087;42.662;23.466;2023-08-01T12:17:26;94683.19;;;31.39;48.41
10097;BME280;5087;42.662;23.466;2023-08-01T12:19:54;94681.53;;;30.86;52.50
10097;BME280;5087;42.662;23.466;2023-08-01T12:22:21;94691.38;;;29.81;53.27
10097;BME280;5087;42.662;23.466;2023-08-01T12:24:48;94688.94;;;29.07;53.85
10097;BME280;5087;42.662;23.466;2023-08-01T12:27:16;94675.56;;;28.67;54.71
10097;BME280;5087;42.662;23.466;2023-08-01T12:29:43;94689.47;;;29.15;53.61
10097;BME280;5087;42.662;23.466;2023-08-01T12:32:13;94674.06;;;29.10;54.41
10097;BME280;5087;42.662;23.466;2023-08-01T12:34:41;94676.97;;;29.29;55.86
10097;BME280;5087;42.662;23.466;2023-08-01T12:37:17;94677.81;;;30.11;52.72
10097;BME280;5087;42.662;23.466;2023-08-01T12:39:45;94666.25;;;30.50;52.14
10097;BME280;5087;42.662;23.466;2023-08-01T12:42:14;94670.34;;;30.08;52.95
10097;BME280;5087;42.662;23.466;2023-08-01T12:44:42;94649.00;;;29.29;53.23
10097;BME280;5087;42.662;23.466;2023-08-01T12:47:09;94663.25;;;29.44;55.40
10097;BME280;5087;42.662;23.466;2023-08-01T12:49:41;94664.69;;;29.26;54.18
10097;BME280;5087;42.662;23.466;2023-08-01T12:52:10;94662.16;;;29.19;55.54
10097;BME280;5087;42.662;23.466;2023-08-01T12:54:37;94659.56;;;29.56;52.80
10097;BME280;5087;42.662;23.466;2023-08-01T12:57:05;94650.22;;;28.74;54.92
10097;BME280;5087;42.662;23.466;2023-08-01T12:59:33;94631.28;;;28.56;56.03
10097;BME280;5087;42.662;23.466;2023-08-01T13:02:00;94657.69;;;28.99;56.60
10097;BME280;5087;42.662;23.466;2023-08-01T13:04:27;94656.50;;;29.10;54.03
10097;BME280;5087;42.662;23.466;2023-08-01T13:06:54;94645.59;;;29.02;52.96
10097;BME280;5087;42.662;23.466;2023-08-01T13:09:23;94652.44;;;29.55;53.83
10097;BME280;5087;42.662;23.466;2023-08-01T13:11:51;94635.44;;;29.18;54.24
10097;BME280;5087;42.662;23.466;2023-08-01T13:14:19;94636.59;;;29.30;53.08
10097;BME280;5087;42.662;23.466;2023-08-01T13:16:46;94645.72;;;28.99;53.89
10097;BME280;5087;42.662;23.466;2023-08-01T13:19:13;94636.84;;;28.91;54.80
10097;BME280;5087;42.662;23.466;2023-08-01T13:21:40;94632.63;;;28.86;52.60
10097;BME280;5087;42.662;23.466;2023-08-01T13:24:07;94630.41;;;29.03;52.19